Time;durP1;ratioP1;P1;durP2;ratioP2;P2;SDS_P1;SDS_P2;PMS_P1;PMS_P2;Temp;Humidity;BMP_temperature;BMP_pressure;BME280_temperature;BME280_humidity;BME280_pressure;Samples;Min_cycle;Max_cycle;Signal;HPM_P1;HPM_P2
2023/05/19 00:00:14;;;;;;;4.83;1.20;;;;;;;;;;5052514;28;20500;-80
2023/05/19 00:02:40;;;;;;;3.10;1.13;;;;;;;;;;5052451;28;21060;-89
2023/05/19 00:05:06;;;;;;;4.73;0.80;;;;;;;;;;5052533;28;20461;-90
2023/05/19 00:07:33;;;;;;;4.33;1.40;;;;;;;;;;5052437;28;20417;-81
2023/05/19 00:09:59;;;;;;;3.97;1.30;;;;;;;;;;5052479;28;20401;-80
2023/05/19 00:12:25;;;;;;;2.67;1.23;;;;;;;;;;5055965;28;20766;-80
2023/05/19 00:14:51;;;;;;;1.90;1.27;;;;;;;;;;5056248;28;20442;-80
2023/05/19 00:17:17;;;;;;;3.40;1.40;;;;;;;;;;5055730;28;20856;-80
2023/05/19 00:19:43;;;;;;;4.00;1.63;;;;;;;;;;5055782;28;20452;-80
2023/05/19 00:22:09;;;;;;;3.70;2.10;;;;;;;;;;5055667;28;20497;-91
2023/05/19 00:24:35;;;;;;;3.10;1.17;;;;;;;;;;5055934;28;20456;-79
2023/05/19 00:27:01;;;;;;;4.10;1.50;;;;;;;;;;5055915;28;20408;-87
2023/05/19 00:29:28;;;;;;;2.07;1.57;;;;;;;;;;5055934;28;20425;-82
2023/05/19 00:31:54;;;;;;;8.97;1.47;;;;;;;;;;5021343;28;20430;-80
2023/05/19 00:34:20;;;;;;;1.70;0.80;;;;;;;;;;5055587;28;20413;-80
2023/05/19 00:36:45;;;;;;;3.83;1.23;;;;;;;;;;5055667;28;20431;-81
2023/05/19 00:39:11;;;;;;;2.40;1.33;;;;;;;;;;5055639;28;20512;-79
2023/05/19 00:41:37;;;;;;;2.73;1.23;;;;;;;;;;5055519;28;20221;-89
2023/05/19 00:44:03;;;;;;;1.90;1.17;;;;;;;;;;5055454;28;20752;-80
2023/05/19 00:46:29;;;;;;;2.47;1.10;;;;;;;;;;5055128;28;20413;-80
2023/05/19 00:48:55;;;;;;;4.53;1.40;;;;;;;;;;5037497;28;20758;-80
2023/05/19 00:51:22;;;;;;;3.87;1.53;;;;;;;;;;5055388;28;20412;-91
2023/05/19 00:53:49;;;;;;;2.50;1.40;;;;;;;;;;5055363;28;20429;-79
2023/05/19 00:56:16;;;;;;;2.90;1.60;;;;;;;;;;5055444;28;20511;-80
2023/05/19 00:58:41;;;;;;;3.43;1.27;;;;;;;;;;5055254;28;20414;-80
2023/05/19 01:01:07;;;;;;;2.93;1.43;;;;;;;;;;5036882;28;20955;-81
2023/05/19 01:03:35;;;;;;;2.67;1.00;;;;;;;;;;5055248;28;20885;-80
2023/05/19 01:06:03;;;;;;;2.00;1.43;;;;;;;;;;5037374;28;20923;-80
2023/05/19 01:08:30;;;;;;;4.07;2.00;;;;;;;;;;5055172;28;20415;-80
2023/05/19 01:10:56;;;;;;;2.57;1.47;;;;;;;;;;5037053;28;20927;-79
2023/05/19 01:13:22;;;;;;;3.97;1.53;;;;;;;;;;5037173;28;20452;-84
2023/05/19 01:15:57;;;;;;;2.33;1.37;;;;;;;;;;5036848;28;20424;-81
2023/05/19 01:18:31;;;;;;;2.10;1.33;;;;;;;;;;5054701;28;20787;-80
2023/05/19 01:21:23;;;;;;;3.90;1.90;;;;;;;;;;5054863;28;20404;-82
2023/05/19 01:24:02;;;;;;;0.83;0.77;;;;;;;;;;5038310;28;20443;-80
2023/05/19 01:26:40;;;;;;;1.90;1.07;;;;;;;;;;5054945;28;20563;-80
2023/05/19 01:29:08;;;;;;;1.77;1.13;;;;;;;;;;5054739;28;20492;-83
2023/05/19 01:31:36;;;;;;;4.90;1.27;;;;;;;;;;5054378;28;20425;-80
2023/05/19 01:34:03;;;;;;;3.73;1.30;;;;;;;;;;5054716;28;20788;-80
2023/05/19 01:36:31;;;;;;;3.97;2.63;;;;;;;;;;5054706;28;20509;-80
2023/05/19 01:38:58;;;;;;;2.57;1.20;;;;;;;;;;5054457;28;20423;-80
2023/05/19 01:41:25;;;;;;;3.90;1.60;;;;;;;;;;5054217;28;20761;-80
2023/05/19 01:43:53;;;;;;;4.73;1.40;;;;;;;;;;5036472;28;20832;-80
2023/05/19 01:46:19;;;;;;;4.73;1.63;;;;;;;;;;5054143;28;20448;-80
2023/05/19 01:48:45;;;;;;;2.67;1.77;;;;;;;;;;5036462;28;20826;-80
2023/05/19 01:51:10;;;;;;;2.60;1.60;;;;;;;;;;5054284;28;20502;-88
2023/05/19 01:53:36;;;;;;;3.73;1.93;;;;;;;;;;5054130;28;20445;-80
2023/05/19 01:56:03;;;;;;;4.90;2.17;;;;;;;;;;5054194;28;20432;-82
2023/05/19 01:58:35;;;;;;;3.63;1.30;;;;;;;;;;5054130;28;20414;-83
2023/05/19 02:01:05;;;;;;;6.40;1.57;;;;;;;;;;5053743;28;20426;-87
2023/05/19 02:03:30;;;;;;;2.60;1.37;;;;;;;;;;5054088;28;20828;-80
2023/05/19 02:06:06;;;;;;;4.03;3.73;;;;;;;;;;5054186;28;20411;-80
2023/05/19 02:08:55;;;;;;;5.90;2.20;;;;;;;;;;5053977;28;20201;-80
2023/05/19 02:11:31;;;;;;;4.47;1.60;;;;;;;;;;5048753;28;20415;-90
2023/05/19 02:14:00;;;;;;;2.97;1.90;;;;;;;;;;5053894;28;20405;-80
2023/05/19 02:16:27;;;;;;;7.53;1.80;;;;;;;;;;5053473;28;20409;-84
2023/05/19 02:18:54;;;;;;;3.50;0.70;;;;;;;;;;5053581;28;20790;-87
2023/05/19 02:21:19;;;;;;;2.50;1.30;;;;;;;;;;5053801;28;20415;-89
2023/05/19 02:23:46;;;;;;;4.53;2.07;;;;;;;;;;5053725;28;20473;-90
2023/05/19 02:26:12;;;;;;;2.23;0.80;;;;;;;;;;5053990;28;20172;-90
2023/05/19 02:28:38;;;;;;;3.87;2.23;;;;;;;;;;5053685;28;20926;-79
2023/05/19 02:31:07;;;;;;;2.63;1.30;;;;;;;;;;5053358;28;20430;-79
2023/05/19 02:33:33;;;;;;;3.70;1.40;;;;;;;;;;5053110;28;20439;-80
2023/05/19 02:35:59;;;;;;;4.40;2.07;;;;;;;;;;5052991;28;20949;-81
2023/05/19 02:38:26;;;;;;;4.33;1.53;;;;;;;;;;5035418;28;20425;-79
2023/05/19 02:40:52;;;;;;;2.23;1.70;;;;;;;;;;5035548;28;20508;-80
2023/05/19 02:43:18;;;;;;;3.20;0.97;;;;;;;;;;5053066;28;20512;-91
2023/05/19 02:45:44;;;;;;;3.27;1.20;;;;;;;;;;5052848;28;20458;-80
2023/05/19 02:48:10;;;;;;;3.80;1.93;;;;;;;;;;5053210;28;20413;-80
2023/05/19 02:50:36;;;;;;;4.60;1.73;;;;;;;;;;5053197;28;20513;-84
2023/05/19 02:53:02;;;;;;;2.23;0.80;;;;;;;;;;5053192;28;20405;-79
2023/05/19 02:55:28;;;;;;;4.10;1.77;;;;;;;;;;5053207;28;20462;-80
2023/05/19 02:57:54;;;;;;;4.13;1.37;;;;;;;;;;5035306;28;20896;-79
2023/05/19 03:00:20;;;;;;;4.47;1.37;;;;;;;;;;5035135;28;20512;-79
2023/05/19 03:02:46;;;;;;;3.37;2.27;;;;;;;;;;5053109;28;20570;-80
2023/05/19 03:05:13;;;;;;;2.40;1.80;;;;;;;;;;5053024;28;20414;-80
2023/05/19 03:07:38;;;;;;;8.70;1.73;;;;;;;;;;5053032;28;20417;-80
2023/05/19 03:10:05;;;;;;;2.40;1.63;;;;;;;;;;5053024;28;20897;-79
2023/05/19 03:12:32;;;;;;;2.53;1.37;;;;;;;;;;5052840;28;20415;-80
2023/05/19 03:14:58;;;;;;;1.60;1.00;;;;;;;;;;5052488;28;20475;-79
2023/05/19 03:17:24;;;;;;;3.87;1.67;;;;;;;;;;5052803;28;20419;-80
2023/05/19 03:19:50;;;;;;;6.43;2.10;;;;;;;;;;5052576;28;20451;-80
2023/05/19 03:22:17;;;;;;;2.87;1.30;;;;;;;;;;5052630;28;20471;-79
2023/05/19 03:24:43;;;;;;;3.30;1.67;;;;;;;;;;5052739;28;20820;-80
2023/05/19 03:27:09;;;;;;;2.10;1.57;;;;;;;;;;5052714;28;20404;-80
2023/05/19 03:29:36;;;;;;;3.17;2.00;;;;;;;;;;5052305;28;20425;-79
2023/05/19 03:32:01;;;;;;;10.00;2.60;;;;;;;;;;5052710;28;20463;-79
2023/05/19 03:34:27;;;;;;;8.03;2.10;;;;;;;;;;5052669;28;20424;-91
2023/05/19 03:36:53;;;;;;;3.10;1.63;;;;;;;;;;5052781;28;20479;-80
2023/05/19 03:39:19;;;;;;;6.83;2.50;;;;;;;;;;5052704;28;20938;-79
2023/05/19 03:41:45;;;;;;;5.10;1.73;;;;;;;;;;5034601;28;20460;-81
2023/05/19 03:44:11;;;;;;;6.73;2.30;;;;;;;;;;5052615;28;20422;-80
2023/05/19 03:46:37;;;;;;;5.60;2.00;;;;;;;;;;5054628;28;20419;-85
2023/05/19 03:49:03;;;;;;;2.73;1.90;;;;;;;;;;5038682;28;20898;-80
2023/05/19 03:51:29;;;;;;;5.30;2.27;;;;;;;;;;5056499;28;20410;-80
2023/05/19 03:53:55;;;;;;;2.10;1.10;;;;;;;;;;5056527;28;20406;-79
2023/05/19 03:56:23;;;;;;;3.20;2.00;;;;;;;;;;5056360;28;20500;-80
2023/05/19 03:58:49;;;;;;;2.80;2.20;;;;;;;;;;5056455;28;20413;-79
2023/05/19 04:01:15;;;;;;;2.20;1.67;;;;;;;;;;5056049;28;20561;-79
2023/05/19 04:03:41;;;;;;;3.10;1.93;;;;;;;;;;5056333;28;20954;-79
2023/05/19 04:06:07;;;;;;;6.90;2.00;;;;;;;;;;5056329;28;20406;-83
2023/05/19 04:08:33;;;;;;;2.80;1.10;;;;;;;;;;5056156;28;20429;-79
2023/05/19 04:11:00;;;;;;;2.40;1.43;;;;;;;;;;5056431;28;20948;-83
2023/05/19 04:13:26;;;;;;;2.67;1.77;;;;;;;;;;5056441;28;20449;-80
2023/05/19 04:15:52;;;;;;;4.03;2.00;;;;;;;;;;5055768;28;20448;-80
2023/05/19 04:18:18;;;;;;;6.80;2.50;;;;;;;;;;5056002;28;20219;-79
2023/05/19 04:20:43;;;;;;;1.47;0.90;;;;;;;;;;5038239;28;20464;-85
2023/05/19 04:23:09;;;;;;;3.17;1.20;;;;;;;;;;5055837;28;20875;-80
2023/05/19 04:25:36;;;;;;;3.77;1.50;;;;;;;;;;5055869;28;20410;-80
2023/05/19 04:28:02;;;;;;;5.07;1.83;;;;;;;;;;5055082;28;20453;-83
2023/05/19 04:30:28;;;;;;;3.80;1.50;;;;;;;;;;5055232;28;20431;-90
2023/05/19 04:32:54;;;;;;;7.73;1.37;;;;;;;;;;5055978;28;20416;-79
2023/05/19 04:35:21;;;;;;;5.80;1.57;;;;;;;;;;5055894;28;20422;-80
2023/05/19 04:37:47;;;;;;;8.23;2.53;;;;;;;;;;5054654;28;20551;-81
2023/05/19 04:40:13;;;;;;;6.30;1.60;;;;;;;;;;5055123;28;20415;-94
2023/05/19 04:42:40;;;;;;;4.63;2.83;;;;;;;;;;5055034;28;20476;-86
2023/05/19 04:45:07;;;;;;;5.33;2.53;;;;;;;;;;5055089;28;20462;-79
2023/05/19 04:47:35;;;;;;;1.93;1.57;;;;;;;;;;5055368;28;20423;-90
2023/05/19 04:50:01;;;;;;;4.60;1.10;;;;;;;;;;5055437;28;20850;-79
2023/05/19 04:52:27;;;;;;;4.73;1.63;;;;;;;;;;5055402;28;20412;-83
2023/05/19 04:54:53;;;;;;;4.23;1.20;;;;;;;;;;5056078;28;20410;-80
2023/05/19 04:57:19;;;;;;;4.43;2.00;;;;;;;;;;5054287;28;20481;-80
2023/05/19 04:59:45;;;;;;;3.63;1.80;;;;;;;;;;5055067;28;20412;-80
2023/05/19 05:02:11;;;;;;;2.50;0.77;;;;;;;;;;5055318;28;20468;-80
2023/05/19 05:04:41;;;;;;;5.23;1.63;;;;;;;;;;5055503;28;20937;-88
2023/05/19 05:07:07;;;;;;;4.03;1.20;;;;;;;;;;5055207;28;20976;-81
2023/05/19 05:09:33;;;;;;;2.20;1.07;;;;;;;;;;5055284;28;20441;-81
2023/05/19 05:11:59;;;;;;;5.30;1.97;;;;;;;;;;5055064;28;20405;-79
2023/05/19 05:14:25;;;;;;;5.50;1.57;;;;;;;;;;5054868;28;20894;-80
2023/05/19 05:16:52;;;;;;;3.20;1.60;;;;;;;;;;5055106;28;20462;-80
2023/05/19 05:19:18;;;;;;;10.00;2.07;;;;;;;;;;5054870;28;21046;-79
2023/05/19 05:21:44;;;;;;;4.10;1.30;;;;;;;;;;5055024;28;20458;-80
2023/05/19 05:24:11;;;;;;;6.47;1.10;;;;;;;;;;5054920;28;20431;-80
2023/05/19 05:26:37;;;;;;;5.73;1.87;;;;;;;;;;5054881;28;20559;-80
2023/05/19 05:29:03;;;;;;;4.43;1.50;;;;;;;;;;5055046;28;20922;-79
2023/05/19 05:31:30;;;;;;;5.13;1.47;;;;;;;;;;5054294;28;20404;-83
2023/05/19 05:33:56;;;;;;;2.57;1.33;;;;;;;;;;5054858;28;20425;-89
2023/05/19 05:36:22;;;;;;;3.70;1.50;;;;;;;;;;5036995;28;20846;-80
2023/05/19 05:38:47;;;;;;;3.10;1.37;;;;;;;;;;5054702;28;20511;-80
2023/05/19 05:41:13;;;;;;;2.83;1.30;;;;;;;;;;5054734;28;20499;-85
2023/05/19 05:43:39;;;;;;;2.87;1.40;;;;;;;;;;5054688;28;20681;-88
2023/05/19 05:46:05;;;;;;;5.10;1.63;;;;;;;;;;5036443;28;20221;-91
2023/05/19 05:48:31;;;;;;;3.47;1.63;;;;;;;;;;5054490;28;20426;-81
2023/05/19 05:50:57;;;;;;;3.10;0.67;;;;;;;;;;5054462;28;20423;-80
2023/05/19 05:53:24;;;;;;;5.20;2.13;;;;;;;;;;5054539;28;20472;-80
2023/05/19 05:55:52;;;;;;;4.73;0.97;;;;;;;;;;5054630;28;20743;-91
2023/05/19 05:58:20;;;;;;;5.43;1.60;;;;;;;;;;5054705;28;20461;-91
2023/05/19 06:00:47;;;;;;;4.27;1.03;;;;;;;;;;5054221;28;20495;-87
2023/05/19 06:03:13;;;;;;;3.50;1.13;;;;;;;;;;5054340;28;20985;-87
2023/05/19 06:05:39;;;;;;;10.70;1.97;;;;;;;;;;5054574;28;20423;-89
2023/05/19 06:08:05;;;;;;;3.37;1.00;;;;;;;;;;5036304;28;20754;-89
2023/05/19 06:10:32;;;;;;;6.10;1.57;;;;;;;;;;5053974;28;20425;-89
2023/05/19 06:12:57;;;;;;;2.13;0.83;;;;;;;;;;5054342;28;20827;-81
2023/05/19 06:15:23;;;;;;;2.00;1.27;;;;;;;;;;5053830;28;20427;-80
2023/05/19 06:17:49;;;;;;;5.47;1.63;;;;;;;;;;5053756;28;20283;-80
2023/05/19 06:20:15;;;;;;;5.90;0.80;;;;;;;;;;5053981;28;20499;-80
2023/05/19 06:22:41;;;;;;;2.37;1.00;;;;;;;;;;5036161;28;20247;-80
2023/05/19 06:25:07;;;;;;;4.83;1.30;;;;;;;;;;5054202;28;20839;-86
2023/05/19 06:27:34;;;;;;;2.63;0.60;;;;;;;;;;5053943;28;20170;-86
2023/05/19 06:30:00;;;;;;;4.50;1.10;;;;;;;;;;5053468;28;20405;-91
2023/05/19 06:32:25;;;;;;;3.77;0.63;;;;;;;;;;5053734;28;20547;-80
2023/05/19 06:34:55;;;;;;;2.70;1.37;;;;;;;;;;5053623;28;20501;-92
2023/05/19 06:37:24;;;;;;;3.20;1.03;;;;;;;;;;5053557;28;20412;-80
2023/05/19 06:39:51;;;;;;;1.50;1.00;;;;;;;;;;5053910;28;20422;-92
2023/05/19 06:42:21;;;;;;;4.33;1.43;;;;;;;;;;5053457;28;20506;-81
2023/05/19 06:44:48;;;;;;;2.57;0.50;;;;;;;;;;5035950;28;20413;-78
2023/05/19 06:47:14;;;;;;;3.50;1.00;;;;;;;;;;5053596;28;20412;-81
2023/05/19 06:49:40;;;;;;;1.80;0.50;;;;;;;;;;5053391;28;20411;-90
2023/05/19 06:52:06;;;;;;;2.80;0.50;;;;;;;;;;5053525;28;20526;-80
2023/05/19 06:54:32;;;;;;;2.10;0.67;;;;;;;;;;5053472;28;20431;-91
2023/05/19 06:56:57;;;;;;;2.50;0.30;;;;;;;;;;5035660;28;20575;-91
2023/05/19 06:59:23;;;;;;;2.50;0.40;;;;;;;;;;5053135;28;20423;-82
2023/05/19 07:01:49;;;;;;;1.77;0.40;;;;;;;;;;5053101;28;20177;-90
2023/05/19 07:04:15;;;;;;;5.30;1.20;;;;;;;;;;5053481;28;20454;-79
2023/05/19 07:06:41;;;;;;;6.07;0.70;;;;;;;;;;5053079;28;20172;-79
2023/05/19 07:09:07;;;;;;;1.30;0.50;;;;;;;;;;5053118;28;20416;-88
2023/05/19 07:11:33;;;;;;;2.30;0.30;;;;;;;;;;5053412;28;20173;-80
2023/05/19 07:13:59;;;;;;;2.33;0.73;;;;;;;;;;5052777;28;20894;-90
2023/05/19 07:16:25;;;;;;;2.73;0.60;;;;;;;;;;5053222;28;20403;-79
2023/05/19 07:18:51;;;;;;;1.17;0.40;;;;;;;;;;5053009;28;20827;-91
2023/05/19 07:21:17;;;;;;;2.20;0.70;;;;;;;;;;5057464;28;20173;-79
2023/05/19 07:23:43;;;;;;;1.63;0.63;;;;;;;;;;5059556;28;20653;-80
2023/05/19 07:26:09;;;;;;;2.43;0.40;;;;;;;;;;5059540;28;20401;-88
2023/05/19 07:28:35;;;;;;;3.23;0.97;;;;;;;;;;5060076;28;20514;-91
2023/05/19 07:31:01;;;;;;;2.03;0.83;;;;;;;;;;5059347;28;20717;-80
2023/05/19 07:33:27;;;;;;;2.57;0.50;;;;;;;;;;5041988;28;20451;-80
2023/05/19 07:35:53;;;;;;;1.87;0.80;;;;;;;;;;5059700;28;20175;-80
2023/05/19 07:38:19;;;;;;;1.87;0.40;;;;;;;;;;5060093;28;20176;-81
2023/05/19 07:40:45;;;;;;;3.77;1.00;;;;;;;;;;5059458;28;20180;-79
2023/05/19 07:43:11;;;;;;;4.47;0.63;;;;;;;;;;5059124;28;20891;-80
2023/05/19 07:45:37;;;;;;;6.63;0.80;;;;;;;;;;5059985;28;20235;-87
2023/05/19 07:48:03;;;;;;;2.63;0.80;;;;;;;;;;5063362;28;20792;-85
2023/05/19 07:50:29;;;;;;;2.00;0.67;;;;;;;;;;5060111;28;20419;-90
2023/05/19 07:52:55;;;;;;;2.97;0.73;;;;;;;;;;5059849;28;20198;-87
2023/05/19 07:55:21;;;;;;;3.70;0.90;;;;;;;;;;5059772;28;20414;-88
2023/05/19 07:57:48;;;;;;;2.73;0.30;;;;;;;;;;5059444;28;20475;-79
2023/05/19 08:00:14;;;;;;;3.67;0.73;;;;;;;;;;5058792;28;21457;-79
2023/05/19 08:02:40;;;;;;;1.73;1.10;;;;;;;;;;5041066;28;20478;-80
2023/05/19 08:05:08;;;;;;;1.80;0.70;;;;;;;;;;5059218;28;20414;-79
2023/05/19 08:07:33;;;;;;;4.50;0.87;;;;;;;;;;5059527;28;20477;-82
2023/05/19 08:09:59;;;;;;;2.90;0.30;;;;;;;;;;5059317;28;20407;-80
2023/05/19 08:12:25;;;;;;;1.80;0.40;;;;;;;;;;5059202;28;20662;-81
2023/05/19 08:14:51;;;;;;;3.13;0.50;;;;;;;;;;5058610;28;20227;-83
2023/05/19 08:17:17;;;;;;;4.00;1.27;;;;;;;;;;5058978;28;20184;-83
2023/05/19 08:19:43;;;;;;;3.80;0.50;;;;;;;;;;5058774;28;20810;-80
2023/05/19 08:22:09;;;;;;;1.83;0.43;;;;;;;;;;5058793;28;20463;-80
2023/05/19 08:24:35;;;;;;;1.60;0.40;;;;;;;;;;5058889;28;20174;-80
2023/05/19 08:27:03;;;;;;;2.60;0.40;;;;;;;;;;5058930;28;20547;-81
2023/05/19 08:29:29;;;;;;;3.63;0.60;;;;;;;;;;5058518;28;20174;-81
2023/05/19 08:31:57;;;;;;;1.77;0.50;;;;;;;;;;5057668;28;20762;-81
2023/05/19 08:34:23;;;;;;;1.07;0.20;;;;;;;;;;5055562;28;20561;-80
2023/05/19 08:36:49;;;;;;;2.30;0.43;;;;;;;;;;5055550;28;20420;-80
2023/05/19 08:39:17;;;;;;;4.47;0.70;;;;;;;;;;5055584;28;20166;-80
2023/05/19 08:41:43;;;;;;;1.73;1.13;;;;;;;;;;5055424;28;20500;-80
2023/05/19 08:44:09;;;;;;;2.37;0.50;;;;;;;;;;5055171;28;20981;-81
2023/05/19 08:46:35;;;;;;;1.10;0.30;;;;;;;;;;5055328;28;20404;-80
2023/05/19 08:49:11;;;;;;;1.73;0.43;;;;;;;;;;5055303;28;20423;-81
2023/05/19 08:51:50;;;;;;;2.83;0.90;;;;;;;;;;5037405;28;20416;-81
2023/05/19 08:54:17;;;;;;;1.43;0.60;;;;;;;;;;5055268;28;20773;-80
2023/05/19 08:56:46;;;;;;;3.60;0.73;;;;;;;;;;5055225;28;20458;-82
2023/05/19 08:59:15;;;;;;;1.80;0.50;;;;;;;;;;5047671;28;20413;-80
2023/05/19 09:01:45;;;;;;;5.03;0.80;;;;;;;;;;5035133;28;20401;-80
2023/05/19 09:04:11;;;;;;;3.00;0.53;;;;;;;;;;5035246;28;20953;-82
2023/05/19 09:06:39;;;;;;;3.23;0.67;;;;;;;;;;5017422;28;20436;-80
2023/05/19 09:09:05;;;;;;;1.43;0.67;;;;;;;;;;5035096;28;20514;-80
2023/05/19 09:11:32;;;;;;;1.93;0.67;;;;;;;;;;5035089;28;20401;-81
2023/05/19 09:13:58;;;;;;;3.13;0.73;;;;;;;;;;5034573;28;20409;-81
2023/05/19 09:16:24;;;;;;;2.60;0.67;;;;;;;;;;5034831;28;20412;-81
2023/05/19 09:18:56;;;;;;;3.40;0.77;;;;;;;;;;5034855;28;20222;-81
2023/05/19 09:21:32;;;;;;;3.33;0.57;;;;;;;;;;5034884;28;20464;-80
2023/05/19 09:23:58;;;;;;;2.70;0.57;;;;;;;;;;5034639;28;20472;-81
2023/05/19 09:26:24;;;;;;;2.87;0.60;;;;;;;;;;5034624;28;20421;-80
2023/05/19 09:28:51;;;;;;;2.67;0.50;;;;;;;;;;5034419;28;20436;-80
2023/05/19 09:31:16;;;;;;;2.77;0.47;;;;;;;;;;5034694;28;20891;-80
2023/05/19 09:33:42;;;;;;;3.50;1.07;;;;;;;;;;5034647;28;20412;-80
2023/05/19 09:36:10;;;;;;;3.03;0.40;;;;;;;;;;5034574;28;20178;-81
2023/05/19 09:38:36;;;;;;;3.93;0.50;;;;;;;;;;5034543;28;20425;-81
2023/05/19 09:41:04;;;;;;;1.70;0.50;;;;;;;;;;5034473;28;20977;-80
2023/05/19 09:43:32;;;;;;;3.33;0.50;;;;;;;;;;5033611;28;20527;-80
2023/05/19 09:46:09;;;;;;;2.97;0.40;;;;;;;;;;5034491;28;20467;-80
2023/05/19 09:48:35;;;;;;;2.10;0.83;;;;;;;;;;5034358;28;20489;-81
2023/05/19 09:51:02;;;;;;;1.13;0.30;;;;;;;;;;5034327;28;20464;-82
2023/05/19 09:53:30;;;;;;;1.80;0.67;;;;;;;;;;5034115;28;20476;-83
2023/05/19 09:55:56;;;;;;;1.27;0.47;;;;;;;;;;5034323;28;20405;-87
2023/05/19 09:58:23;;;;;;;3.60;0.50;;;;;;;;;;5034164;28;20423;-81
2023/05/19 10:00:56;;;;;;;2.10;0.47;;;;;;;;;;5033741;28;20390;-88
2023/05/19 10:03:22;;;;;;;3.20;0.70;;;;;;;;;;5034011;28;20830;-86
2023/05/19 10:05:49;;;;;;;2.30;0.60;;;;;;;;;;5034060;28;20899;-86
2023/05/19 10:08:16;;;;;;;1.70;0.50;;;;;;;;;;5034050;28;20412;-81
2023/05/19 10:10:42;;;;;;;2.77;0.90;;;;;;;;;;5033960;28;20480;-81
2023/05/19 10:13:09;;;;;;;4.23;1.13;;;;;;;;;;5033828;28;20408;-81
2023/05/19 10:15:35;;;;;;;1.87;0.40;;;;;;;;;;5033583;28;20420;-82
2023/05/19 10:18:02;;;;;;;1.63;0.40;;;;;;;;;;5033652;28;20448;-84
2023/05/19 10:20:28;;;;;;;4.50;0.70;;;;;;;;;;5033876;28;20401;-83
2023/05/19 10:22:54;;;;;;;2.20;0.43;;;;;;;;;;5033613;28;20982;-86
2023/05/19 10:25:20;;;;;;;2.97;0.50;;;;;;;;;;5033656;28;20493;-83
2023/05/19 10:27:57;;;;;;;2.47;0.70;;;;;;;;;;5033806;28;20265;-85
2023/05/19 10:30:28;;;;;;;1.70;0.90;;;;;;;;;;5033242;28;20178;-86
2023/05/19 10:32:56;;;;;;;3.00;0.63;;;;;;;;;;5033544;28;20795;-87
2023/05/19 10:35:40;;;;;;;3.00;0.80;;;;;;;;;;5033562;28;20432;-89
2023/05/19 10:38:21;;;;;;;3.00;0.77;;;;;;;;;;5015903;28;20413;-86
2023/05/19 10:40:47;;;;;;;2.77;0.70;;;;;;;;;;5033539;28;20446;-81
2023/05/19 10:43:17;;;;;;;2.33;0.50;;;;;;;;;;5015547;28;20515;-82
2023/05/19 10:45:51;;;;;;;3.13;0.40;;;;;;;;;;5032926;28;20710;-81
2023/05/19 10:48:19;;;;;;;2.27;0.50;;;;;;;;;;5033663;28;20413;-81
2023/05/19 10:50:45;;;;;;;2.50;0.60;;;;;;;;;;5033216;28;20420;-82
2023/05/19 10:53:19;;;;;;;1.53;0.60;;;;;;;;;;5033182;28;20440;-82
2023/05/19 10:55:48;;;;;;;2.77;0.70;;;;;;;;;;5032774;28;20432;-81
2023/05/19 10:58:14;;;;;;;2.37;0.70;;;;;;;;;;5033546;28;20464;-81
2023/05/19 11:00:40;;;;;;;2.40;0.60;;;;;;;;;;5033121;28;20405;-82
2023/05/19 11:03:13;;;;;;;2.60;0.80;;;;;;;;;;5033032;28;20280;-82
2023/05/19 11:05:39;;;;;;;2.33;0.60;;;;;;;;;;5033038;28;20409;-81
2023/05/19 11:08:10;;;;;;;1.23;0.70;;;;;;;;;;5033141;28;20416;-83
2023/05/19 11:10:36;;;;;;;1.90;0.37;;;;;;;;;;5033155;28;20914;-81
2023/05/19 11:13:04;;;;;;;1.10;0.20;;;;;;;;;;5033049;28;20413;-81
2023/05/19 11:15:33;;;;;;;1.60;0.40;;;;;;;;;;5032641;28;20416;-81
2023/05/19 11:18:00;;;;;;;1.30;0.40;;;;;;;;;;5032739;28;20988;-81
2023/05/19 11:20:27;;;;;;;2.20;0.63;;;;;;;;;;5032918;28;20457;-81
2023/05/19 11:23:16;;;;;;;1.47;0.40;;;;;;;;;;5032803;28;20480;-81
2023/05/19 11:25:54;;;;;;;1.23;0.53;;;;;;;;;;5032864;28;20935;-81
2023/05/19 11:28:26;;;;;;;4.00;1.00;;;;;;;;;;5032515;28;20760;-80
2023/05/19 11:30:53;;;;;;;2.07;0.63;;;;;;;;;;5032778;28;20424;-81
2023/05/19 11:33:20;;;;;;;1.80;0.60;;;;;;;;;;5032739;28;20433;-82
2023/05/19 11:35:48;;;;;;;0.80;0.30;;;;;;;;;;5032866;28;20448;-81
2023/05/19 11:38:14;;;;;;;1.80;0.70;;;;;;;;;;5032709;28;20764;-82
2023/05/19 11:40:41;;;;;;;1.20;0.60;;;;;;;;;;5032664;28;20523;-81
2023/05/19 11:43:07;;;;;;;4.07;0.73;;;;;;;;;;5032575;28;20508;-81
2023/05/19 11:45:33;;;;;;;1.03;0.20;;;;;;;;;;5014834;28;20418;-81
2023/05/19 11:48:04;;;;;;;2.73;0.20;;;;;;;;;;5032679;28;20178;-81
2023/05/19 11:50:30;;;;;;;1.07;0.83;;;;;;;;;;5032713;28;20413;-82
2023/05/19 11:52:56;;;;;;;1.30;0.63;;;;;;;;;;5032507;28;20417;-81
2023/05/19 11:55:22;;;;;;;1.43;0.37;;;;;;;;;;5032721;28;20907;-81
2023/05/19 11:57:57;;;;;;;0.70;0.30;;;;;;;;;;5032531;28;20651;-80
2023/05/19 12:00:23;;;;;;;0.93;0.70;;;;;;;;;;5014677;28;20842;-82
2023/05/19 12:02:50;;;;;;;1.57;0.57;;;;;;;;;;5032750;28;20481;-81
2023/05/19 12:05:19;;;;;;;1.87;0.60;;;;;;;;;;5033011;28;20413;-85
2023/05/19 12:07:48;;;;;;;1.90;0.60;;;;;;;;;;5018676;28;21014;-88
2023/05/19 12:10:14;;;;;;;1.37;0.50;;;;;;;;;;5036377;28;20413;-80
2023/05/19 12:12:40;;;;;;;2.60;0.70;;;;;;;;;;5036185;28;20902;-87
2023/05/19 12:15:07;;;;;;;3.30;0.60;;;;;;;;;;5035754;28;20500;-84
2023/05/19 12:17:33;;;;;;;1.57;0.37;;;;;;;;;;5036014;28;20515;-86
2023/05/19 12:20:00;;;;;;;1.37;0.43;;;;;;;;;;5036201;28;20421;-82
2023/05/19 12:22:26;;;;;;;1.50;0.60;;;;;;;;;;5035905;28;20468;-81
2023/05/19 12:24:52;;;;;;;3.23;0.50;;;;;;;;;;5035968;28;20891;-82
2023/05/19 12:27:27;;;;;;;2.60;0.37;;;;;;;;;;5036009;28;20536;-82
2023/05/19 12:29:54;;;;;;;2.43;0.40;;;;;;;;;;5017814;28;20424;-84
2023/05/19 12:32:27;;;;;;;1.27;0.40;;;;;;;;;;5035748;28;20412;-81
2023/05/19 12:34:55;;;;;;;1.13;0.30;;;;;;;;;;5035772;28;20417;-86
2023/05/19 12:37:21;;;;;;;2.17;0.60;;;;;;;;;;5035772;28;20432;-83
2023/05/19 12:39:48;;;;;;;1.57;0.30;;;;;;;;;;5035695;28;20919;-88
2023/05/19 12:42:15;;;;;;;1.50;0.53;;;;;;;;;;5035734;28;20461;-85
2023/05/19 12:44:49;;;;;;;1.63;0.33;;;;;;;;;;5035307;28;20445;-86
2023/05/19 12:47:16;;;;;;;5.20;0.80;;;;;;;;;;5035590;28;20918;-82
2023/05/19 12:49:55;;;;;;;2.10;0.77;;;;;;;;;;5017743;28;20413;-83
2023/05/19 12:52:22;;;;;;;2.27;1.17;;;;;;;;;;5035399;28;20500;-83
2023/05/19 12:54:48;;;;;;;0.93;0.60;;;;;;;;;;5035348;28;20406;-84
2023/05/19 12:57:16;;;;;;;2.20;0.73;;;;;;;;;;5035285;28;20479;-87
2023/05/19 12:59:42;;;;;;;3.13;0.70;;;;;;;;;;5035101;28;20925;-81
2023/05/19 13:02:08;;;;;;;3.17;0.97;;;;;;;;;;5035165;28;20493;-82
2023/05/19 13:04:34;;;;;;;1.33;0.53;;;;;;;;;;5035147;28;20961;-82
2023/05/19 13:07:00;;;;;;;1.73;0.20;;;;;;;;;;5017403;28;20416;-81
2023/05/19 13:09:27;;;;;;;1.37;0.50;;;;;;;;;;5034900;28;20409;-83
2023/05/19 13:11:53;;;;;;;1.57;0.30;;;;;;;;;;5017388;28;20401;-85
2023/05/19 13:14:19;;;;;;;1.67;0.47;;;;;;;;;;5034767;28;20835;-87
2023/05/19 13:16:46;;;;;;;1.30;0.67;;;;;;;;;;5034931;28;20448;-86
2023/05/19 13:19:17;;;;;;;1.50;0.43;;;;;;;;;;5034027;28;20489;-89
2023/05/19 13:21:46;;;;;;;2.00;0.50;;;;;;;;;;5035117;28;20417;-87
2023/05/19 13:24:12;;;;;;;2.10;0.30;;;;;;;;;;5034972;28;20425;-85
2023/05/19 13:26:38;;;;;;;2.50;0.87;;;;;;;;;;5034806;28;20412;-86
2023/05/19 13:29:04;;;;;;;1.63;0.43;;;;;;;;;;5034480;28;20181;-87
2023/05/19 13:31:30;;;;;;;3.43;1.07;;;;;;;;;;5034720;28;20397;-85
2023/05/19 13:33:56;;;;;;;2.27;0.60;;;;;;;;;;5034909;28;21089;-86
2023/05/19 13:36:22;;;;;;;1.80;0.70;;;;;;;;;;5035276;28;20277;-86
2023/05/19 13:38:48;;;;;;;1.33;0.80;;;;;;;;;;5034487;28;20496;-83
2023/05/19 13:41:14;;;;;;;1.47;0.50;;;;;;;;;;5034254;28;20667;-84
2023/05/19 13:43:40;;;;;;;2.47;0.70;;;;;;;;;;5034125;28;20217;-82
2023/05/19 13:46:05;;;;;;;1.50;0.50;;;;;;;;;;5034615;28;20189;-89
2023/05/19 13:48:31;;;;;;;1.53;0.63;;;;;;;;;;5034568;28;20904;-82
2023/05/19 13:50:58;;;;;;;1.33;1.10;;;;;;;;;;5034357;28;20173;-84
2023/05/19 13:53:25;;;;;;;2.20;0.63;;;;;;;;;;5034514;28;20178;-84
2023/05/19 13:55:53;;;;;;;4.03;1.07;;;;;;;;;;5032433;28;20416;-86
2023/05/19 13:58:19;;;;;;;2.33;0.40;;;;;;;;;;5044952;28;20419;-88
2023/05/19 14:00:45;;;;;;;1.37;0.67;;;;;;;;;;5054056;28;20823;-89
2023/05/19 14:03:12;;;;;;;1.97;0.70;;;;;;;;;;5053772;28;20485;-88
2023/05/19 14:05:38;;;;;;;3.80;1.57;;;;;;;;;;5043516;28;20187;-86
2023/05/19 14:08:04;;;;;;;3.33;0.73;;;;;;;;;;5034320;28;20410;-79
2023/05/19 14:10:30;;;;;;;1.00;0.30;;;;;;;;;;5033722;28;20502;-84
2023/05/19 14:12:58;;;;;;;1.87;0.20;;;;;;;;;;5032636;28;20447;-81
2023/05/19 14:15:24;;;;;;;2.23;0.67;;;;;;;;;;5033363;28;20188;-87
2023/05/19 14:17:51;;;;;;;1.23;0.57;;;;;;;;;;5033604;28;20444;-85
2023/05/19 14:20:17;;;;;;;2.10;0.43;;;;;;;;;;5033555;28;20439;-89
2023/05/19 14:22:43;;;;;;;2.73;0.50;;;;;;;;;;5034271;28;20479;-90
2023/05/19 14:25:09;;;;;;;1.50;0.27;;;;;;;;;;5050366;28;20418;-89
2023/05/19 14:27:35;;;;;;;1.90;0.40;;;;;;;;;;5053636;28;20182;-87
2023/05/19 14:30:01;;;;;;;1.03;0.50;;;;;;;;;;5053274;28;20406;-88
2023/05/19 14:32:27;;;;;;;3.23;0.87;;;;;;;;;;5047489;28;20710;-87
2023/05/19 14:34:53;;;;;;;2.23;0.40;;;;;;;;;;5040958;28;20430;-87
2023/05/19 14:37:19;;;;;;;3.57;0.60;;;;;;;;;;5043515;28;20173;-89
2023/05/19 14:39:45;;;;;;;2.30;0.30;;;;;;;;;;5038511;28;20172;-86
2023/05/19 14:42:11;;;;;;;2.53;1.90;;;;;;;;;;5039083;28;20458;-86